sensor_id;sensor_type;location;lat;lon;timestamp;P1;durP1;ratioP1;P2;durP2;ratioP2
33900;SDS011;20193;49.810;6.418;2022-08-05T00:00:47;12.45;;;11.35;;
33900;SDS011;20193;49.810;6.418;2022-08-05T00:03:13;12.88;;;11.60;;
33900;SDS011;20193;49.810;6.418;2022-08-05T00:05:39;14.05;;;12.73;;
33900;SDS011;20193;49.810;6.418;2022-08-05T00:08:07;12.77;;;11.68;;
33900;SDS011;20193;49.810;6.418;2022-08-05T00:10:33;13.23;;;11.82;;
33900;SDS011;20193;49.810;6.418;2022-08-05T00:12:59;19.92;;;12.85;;
33900;SDS011;20193;49.810;6.418;2022-08-05T00:15:24;11.02;;;9.93;;
33900;SDS011;20193;49.810;6.418;2022-08-05T00:17:50;16.13;;;9.85;;
33900;SDS011;20193;49.810;6.418;2022-08-05T00:20:15;11.55;;;9.43;;
33900;SDS011;20193;49.810;6.418;2022-08-05T00:22:41;11.23;;;9.20;;
33900;SDS011;20193;49.810;6.418;2022-08-05T00:25:07;10.32;;;9.23;;
33900;SDS011;20193;49.810;6.418;2022-08-05T00:27:32;10.88;;;9.82;;
33900;SDS011;20193;49.810;6.418;2022-08-05T00:29:58;10.30;;;9.10;;
33900;SDS011;20193;49.810;6.418;2022-08-05T00:32:23;11.50;;;10.40;;
33900;SDS011;20193;49.810;6.418;2022-08-05T00:34:49;10.65;;;9.75;;
33900;SDS011;20193;49.810;6.418;2022-08-05T00:37:15;12.88;;;11.68;;
33900;SDS011;20193;49.810;6.418;2022-08-05T00:39:40;11.50;;;10.30;;
33900;SDS011;20193;49.810;6.418;2022-08-05T00:42:06;11.15;;;10.15;;
33900;SDS011;20193;49.810;6.418;2022-08-05T00:44:32;11.60;;;10.43;;
33900;SDS011;20193;49.810;6.418;2022-08-05T00:46:58;11.38;;;10.20;;
33900;SDS011;20193;49.810;6.418;2022-08-05T00:49:23;11.00;;;10.00;;
33900;SDS011;20193;49.810;6.418;2022-08-05T00:51:49;10.52;;;9.60;;
33900;SDS011;20193;49.810;6.418;2022-08-05T00:54:14;9.95;;;8.90;;
33900;SDS011;20193;49.810;6.418;2022-08-05T00:56:40;9.88;;;8.88;;
33900;SDS011;20193;49.810;6.418;2022-08-05T00:59:06;11.07;;;10.10;;
33900;SDS011;20193;49.810;6.418;2022-08-05T01:01:32;12.23;;;11.00;;
33900;SDS011;20193;49.810;6.418;2022-08-05T01:03:58;11.40;;;9.40;;
33900;SDS011;20193;49.810;6.418;2022-08-05T01:06:23;10.57;;;9.63;;
33900;SDS011;20193;49.810;6.418;2022-08-05T01:08:49;11.05;;;9.95;;
33900;SDS011;20193;49.810;6.418;2022-08-05T01:11:19;10.45;;;9.15;;
33900;SDS011;20193;49.810;6.418;2022-08-05T01:22:23;11.63;;;9.07;;
33900;SDS011;20193;49.810;6.418;2022-08-05T01:31:01;9.38;;;8.27;;
33900;SDS011;20193;49.810;6.418;2022-08-05T01:33:33;11.07;;;9.10;;
33900;SDS011;20193;49.810;6.418;2022-08-05T01:36:05;13.07;;;10.20;;
33900;SDS011;20193;49.810;6.418;2022-08-05T01:38:35;15.02;;;10.68;;
33900;SDS011;20193;49.810;6.418;2022-08-05T01:41:01;23.92;;;13.48;;
33900;SDS011;20193;49.810;6.418;2022-08-05T01:43:29;14.98;;;12.10;;
33900;SDS011;20193;49.810;6.418;2022-08-05T01:45:56;14.50;;;11.98;;
33900;SDS011;20193;49.810;6.418;2022-08-05T01:48:26;13.57;;;11.90;;
33900;SDS011;20193;49.810;6.418;2022-08-05T01:50:55;14.90;;;12.27;;
33900;SDS011;20193;49.810;6.418;2022-08-05T01:53:22;16.33;;;13.43;;
33900;SDS011;20193;49.810;6.418;2022-08-05T01:55:49;20.10;;;13.95;;
33900;SDS011;20193;49.810;6.418;2022-08-05T01:58:16;20.50;;;15.38;;
33900;SDS011;20193;49.810;6.418;2022-08-05T02:00:46;16.92;;;14.93;;
33900;SDS011;20193;49.810;6.418;2022-08-05T02:03:22;17.45;;;14.95;;
33900;SDS011;20193;49.810;6.418;2022-08-05T02:06:00;16.85;;;15.15;;
33900;SDS011;20193;49.810;6.418;2022-08-05T02:08:27;21.50;;;16.48;;
33900;SDS011;20193;49.810;6.418;2022-08-05T02:10:55;19.70;;;16.13;;
33900;SDS011;20193;49.810;6.418;2022-08-05T02:13:27;18.02;;;15.73;;
33900;SDS011;20193;49.810;6.418;2022-08-05T02:16:02;20.05;;;15.20;;
33900;SDS011;20193;49.810;6.418;2022-08-05T02:18:39;19.38;;;13.30;;
33900;SDS011;20193;49.810;6.418;2022-08-05T02:21:09;14.77;;;13.18;;
33900;SDS011;20193;49.810;6.418;2022-08-05T02:23:39;16.90;;;14.70;;
33900;SDS011;20193;49.810;6.418;2022-08-05T02:26:07;17.27;;;15.60;;
33900;SDS011;20193;49.810;6.418;2022-08-05T02:28:36;17.73;;;15.80;;
33900;SDS011;20193;49.810;6.418;2022-08-05T02:31:13;15.57;;;14.07;;
33900;SDS011;20193;49.810;6.418;2022-08-05T02:33:46;17.25;;;15.50;;
33900;SDS011;20193;49.810;6.418;2022-08-05T02:36:15;16.83;;;15.13;;
33900;SDS011;20193;49.810;6.418;2022-08-05T02:38:44;16.38;;;14.73;;
33900;SDS011;20193;49.810;6.418;2022-08-05T02:41:13;19.60;;;15.32;;
33900;SDS011;20193;49.810;6.418;2022-08-05T02:43:41;19.30;;;16.15;;
33900;SDS011;20193;49.810;6.418;2022-08-05T02:46:09;23.83;;;16.98;;
33900;SDS011;20193;49.810;6.418;2022-08-05T02:48:39;17.05;;;14.55;;
33900;SDS011;20193;49.810;6.418;2022-08-05T02:51:06;20.00;;;15.32;;
33900;SDS011;20193;49.810;6.418;2022-08-05T02:53:33;18.73;;;16.88;;
33900;SDS011;20193;49.810;6.418;2022-08-05T02:56:01;20.35;;;17.63;;
33900;SDS011;20193;49.810;6.418;2022-08-05T02:58:28;20.05;;;16.88;;
33900;SDS011;20193;49.810;6.418;2022-08-05T03:00:55;18.90;;;16.73;;
33900;SDS011;20193;49.810;6.418;2022-08-05T03:03:22;18.42;;;16.45;;
33900;SDS011;20193;49.810;6.418;2022-08-05T03:05:48;17.52;;;15.57;;
33900;SDS011;20193;49.810;6.418;2022-08-05T03:08:14;19.77;;;15.93;;
33900;SDS011;20193;49.810;6.418;2022-08-05T03:10:44;17.80;;;16.08;;
33900;SDS011;20193;49.810;6.418;2022-08-05T03:13:13;19.77;;;17.67;;
33900;SDS011;20193;49.810;6.418;2022-08-05T03:15:41;19.55;;;17.00;;
33900;SDS011;20193;49.810;6.418;2022-08-05T03:18:07;19.80;;;17.80;;
33900;SDS011;20193;49.810;6.418;2022-08-05T03:20:33;22.48;;;17.15;;
33900;SDS011;20193;49.810;6.418;2022-08-05T03:22:59;21.05;;;17.75;;
33900;SDS011;20193;49.810;6.418;2022-08-05T03:25:25;21.23;;;17.27;;
33900;SDS011;20193;49.810;6.418;2022-08-05T03:28:09;17.26;;;15.29;;
33900;SDS011;20193;49.810;6.418;2022-08-05T03:30:35;18.45;;;16.73;;
33900;SDS011;20193;49.810;6.418;2022-08-05T03:33:02;17.92;;;15.75;;
33900;SDS011;20193;49.810;6.418;2022-08-05T03:35:29;18.58;;;16.63;;
33900;SDS011;20193;49.810;6.418;2022-08-05T03:37:57;19.15;;;16.42;;
33900;SDS011;20193;49.810;6.418;2022-08-05T03:40:23;16.55;;;14.93;;
33900;SDS011;20193;49.810;6.418;2022-08-05T03:42:49;18.88;;;16.50;;
33900;SDS011;20193;49.810;6.418;2022-08-05T03:45:15;19.65;;;17.67;;
33900;SDS011;20193;49.810;6.418;2022-08-05T03:47:41;21.67;;;17.42;;
33900;SDS011;20193;49.810;6.418;2022-08-05T03:50:06;20.55;;;18.00;;
33900;SDS011;20193;49.810;6.418;2022-08-05T03:52:33;22.35;;;18.73;;
33900;SDS011;20193;49.810;6.418;2022-08-05T03:55:14;21.20;;;18.50;;
33900;SDS011;20193;49.810;6.418;2022-08-05T03:57:46;23.00;;;20.55;;
33900;SDS011;20193;49.810;6.418;2022-08-05T04:00:13;18.48;;;16.52;;
33900;SDS011;20193;49.810;6.418;2022-08-05T04:02:40;21.60;;;18.45;;
33900;SDS011;20193;49.810;6.418;2022-08-05T04:05:12;20.00;;;17.75;;
33900;SDS011;20193;49.810;6.418;2022-08-05T04:07:39;21.67;;;19.35;;
33900;SDS011;20193;49.810;6.418;2022-08-05T04:10:06;20.92;;;18.73;;
33900;SDS011;20193;49.810;6.418;2022-08-05T04:12:35;23.95;;;19.17;;
33900;SDS011;20193;49.810;6.418;2022-08-05T04:15:01;22.73;;;19.45;;
33900;SDS011;20193;49.810;6.418;2022-08-05T04:17:27;22.10;;;19.80;;
33900;SDS011;20193;49.810;6.418;2022-08-05T04:19:52;22.45;;;19.08;;
33900;SDS011;20193;49.810;6.418;2022-08-05T04:22:18;26.48;;;19.88;;
33900;SDS011;20193;49.810;6.418;2022-08-05T04:24:44;20.83;;;18.15;;
33900;SDS011;20193;49.810;6.418;2022-08-05T04:27:11;23.50;;;20.52;;
33900;SDS011;20193;49.810;6.418;2022-08-05T04:29:37;18.95;;;16.95;;
33900;SDS011;20193;49.810;6.418;2022-08-05T04:32:03;24.40;;;19.05;;
33900;SDS011;20193;49.810;6.418;2022-08-05T04:34:30;30.88;;;19.60;;
33900;SDS011;20193;49.810;6.418;2022-08-05T04:36:55;20.45;;;16.17;;
33900;SDS011;20193;49.810;6.418;2022-08-05T04:39:21;22.27;;;17.40;;
33900;SDS011;20193;49.810;6.418;2022-08-05T04:41:47;24.48;;;16.98;;
33900;SDS011;20193;49.810;6.418;2022-08-05T04:44:13;19.42;;;16.00;;
33900;SDS011;20193;49.810;6.418;2022-08-05T04:46:39;24.80;;;16.40;;
33900;SDS011;20193;49.810;6.418;2022-08-05T04:49:05;19.08;;;15.35;;
33900;SDS011;20193;49.810;6.418;2022-08-05T04:51:31;21.95;;;16.00;;
33900;SDS011;20193;49.810;6.418;2022-08-05T04:53:57;17.48;;;15.15;;
33900;SDS011;20193;49.810;6.418;2022-08-05T04:56:23;20.27;;;16.65;;
33900;SDS011;20193;49.810;6.418;2022-08-05T04:58:49;19.35;;;17.02;;
33900;SDS011;20193;49.810;6.418;2022-08-05T05:01:14;19.67;;;17.20;;
33900;SDS011;20193;49.810;6.418;2022-08-05T05:03:40;17.05;;;15.25;;
33900;SDS011;20193;49.810;6.418;2022-08-05T05:06:08;21.27;;;18.55;;
33900;SDS011;20193;49.810;6.418;2022-08-05T05:08:35;15.85;;;13.77;;
33900;SDS011;20193;49.810;6.418;2022-08-05T05:11:01;18.77;;;15.43;;
33900;SDS011;20193;49.810;6.418;2022-08-05T05:13:26;15.27;;;13.73;;
33900;SDS011;20193;49.810;6.418;2022-08-05T05:15:52;16.90;;;15.30;;
33900;SDS011;20193;49.810;6.418;2022-08-05T05:18:18;19.65;;;17.55;;
33900;SDS011;20193;49.810;6.418;2022-08-05T05:20:44;20.05;;;18.13;;
33900;SDS011;20193;49.810;6.418;2022-08-05T05:23:11;18.48;;;16.50;;
33900;SDS011;20193;49.810;6.418;2022-08-05T05:25:39;17.55;;;15.57;;
33900;SDS011;20193;49.810;6.418;2022-08-05T05:28:05;21.08;;;16.63;;
33900;SDS011;20193;49.810;6.418;2022-08-05T05:30:31;17.42;;;14.57;;
33900;SDS011;20193;49.810;6.418;2022-08-05T05:32:57;19.02;;;16.80;;
33900;SDS011;20193;49.810;6.418;2022-08-05T05:35:24;16.60;;;15.07;;
33900;SDS011;20193;49.810;6.418;2022-08-05T05:37:50;17.08;;;14.70;;
33900;SDS011;20193;49.810;6.418;2022-08-05T05:40:18;16.65;;;14.20;;
33900;SDS011;20193;49.810;6.418;2022-08-05T05:42:45;12.90;;;11.57;;
33900;SDS011;20193;49.810;6.418;2022-08-05T05:45:11;12.75;;;11.45;;
33900;SDS011;20193;49.810;6.418;2022-08-05T05:47:40;13.75;;;11.95;;
33900;SDS011;20193;49.810;6.418;2022-08-05T05:50:10;12.43;;;11.18;;
33900;SDS011;20193;49.810;6.418;2022-08-05T05:52:37;12.50;;;11.25;;
33900;SDS011;20193;49.810;6.418;2022-08-05T05:55:04;10.30;;;9.30;;
33900;SDS011;20193;49.810;6.418;2022-08-05T05:57:33;11.32;;;9.02;;
33900;SDS011;20193;49.810;6.418;2022-08-05T05:59:59;9.50;;;8.60;;
33900;SDS011;20193;49.810;6.418;2022-08-05T06:02:24;9.98;;;8.98;;
33900;SDS011;20193;49.810;6.418;2022-08-05T06:04:50;10.50;;;9.50;;
33900;SDS011;20193;49.810;6.418;2022-08-05T06:07:16;10.18;;;8.90;;
33900;SDS011;20193;49.810;6.418;2022-08-05T06:09:41;12.10;;;11.02;;
33900;SDS011;20193;49.810;6.418;2022-08-05T06:12:07;10.88;;;9.88;;
33900;SDS011;20193;49.810;6.418;2022-08-05T06:14:33;11.30;;;10.20;;
33900;SDS011;20193;49.810;6.418;2022-08-05T06:16:59;13.05;;;10.15;;
33900;SDS011;20193;49.810;6.418;2022-08-05T06:19:25;9.10;;;8.05;;
33900;SDS011;20193;49.810;6.418;2022-08-05T06:21:51;9.10;;;8.38;;
33900;SDS011;20193;49.810;6.418;2022-08-05T06:24:18;9.70;;;8.90;;
33900;SDS011;20193;49.810;6.418;2022-08-05T06:26:44;12.65;;;7.72;;
33900;SDS011;20193;49.810;6.418;2022-08-05T06:29:10;12.95;;;8.38;;
33900;SDS011;20193;49.810;6.418;2022-08-05T06:31:36;9.25;;;8.35;;
33900;SDS011;20193;49.810;6.418;2022-08-05T06:34:02;7.50;;;6.88;;
33900;SDS011;20193;49.810;6.418;2022-08-05T06:36:29;8.57;;;7.45;;
33900;SDS011;20193;49.810;6.418;2022-08-05T06:38:54;10.35;;;8.00;;
33900;SDS011;20193;49.810;6.418;2022-08-05T06:41:20;8.57;;;7.88;;
33900;SDS011;20193;49.810;6.418;2022-08-05T06:43:46;8.88;;;8.07;;
33900;SDS011;20193;49.810;6.418;2022-08-05T06:46:14;10.15;;;7.32;;
33900;SDS011;20193;49.810;6.418;2022-08-05T06:48:40;11.13;;;7.75;;
33900;SDS011;20193;49.810;6.418;2022-08-05T06:51:06;7.32;;;6.22;;
33900;SDS011;20193;49.810;6.418;2022-08-05T06:53:32;10.63;;;7.47;;
33900;SDS011;20193;49.810;6.418;2022-08-05T06:55:59;8.20;;;7.28;;
33900;SDS011;20193;49.810;6.418;2022-08-05T06:58:27;11.48;;;7.53;;
33900;SDS011;20193;49.810;6.418;2022-08-05T07:00:53;22.48;;;6.50;;
33900;SDS011;20193;49.810;6.418;2022-08-05T07:03:19;8.90;;;7.57;;
33900;SDS011;20193;49.810;6.418;2022-08-05T07:05:44;7.68;;;7.00;;
33900;SDS011;20193;49.810;6.418;2022-08-05T07:08:10;6.95;;;6.35;;
33900;SDS011;20193;49.810;6.418;2022-08-05T07:10:35;7.55;;;6.53;;
33900;SDS011;20193;49.810;6.418;2022-08-05T07:13:01;9.27;;;6.57;;
33900;SDS011;20193;49.810;6.418;2022-08-05T07:15:48;6.35;;;5.75;;
33900;SDS011;20193;49.810;6.418;2022-08-05T07:18:33;6.93;;;6.22;;
33900;SDS011;20193;49.810;6.418;2022-08-05T07:20:58;8.00;;;6.30;;
33900;SDS011;20193;49.810;6.418;2022-08-05T07:23:24;7.05;;;6.43;;
33900;SDS011;20193;49.810;6.418;2022-08-05T07:25:50;6.97;;;6.38;;
33900;SDS011;20193;49.810;6.418;2022-08-05T07:28:15;6.90;;;5.88;;
33900;SDS011;20193;49.810;6.418;2022-08-05T07:30:41;19.02;;;6.95;;
33900;SDS011;20193;49.810;6.418;2022-08-05T07:33:07;7.45;;;6.50;;
33900;SDS011;20193;49.810;6.418;2022-08-05T07:35:34;10.52;;;7.55;;
33900;SDS011;20193;49.810;6.418;2022-08-05T07:38:01;7.82;;;7.13;;
33900;SDS011;20193;49.810;6.418;2022-08-05T07:40:26;7.60;;;6.78;;
33900;SDS011;20193;49.810;6.418;2022-08-05T07:42:52;6.32;;;5.82;;
33900;SDS011;20193;49.810;6.418;2022-08-05T07:45:18;7.07;;;6.45;;
33900;SDS011;20193;49.810;6.418;2022-08-05T07:47:44;6.50;;;5.90;;
33900;SDS011;20193;49.810;6.418;2022-08-05T07:50:10;7.20;;;6.50;;
33900;SDS011;20193;49.810;6.418;2022-08-05T07:52:39;7.40;;;6.70;;
33900;SDS011;20193;49.810;6.418;2022-08-05T07:55:10;7.10;;;6.40;;
33900;SDS011;20193;49.810;6.418;2022-08-05T07:57:36;7.57;;;6.88;;
33900;SDS011;20193;49.810;6.418;2022-08-05T08:00:03;7.32;;;6.55;;
33900;SDS011;20193;49.810;6.418;2022-08-05T08:02:30;9.85;;;7.03;;
33900;SDS011;20193;49.810;6.418;2022-08-05T08:04:55;10.32;;;8.43;;
33900;SDS011;20193;49.810;6.418;2022-08-05T08:07:21;7.22;;;6.53;;
33900;SDS011;20193;49.810;6.418;2022-08-05T08:09:47;7.32;;;6.30;;
33900;SDS011;20193;49.810;6.418;2022-08-05T08:12:13;8.18;;;7.25;;
33900;SDS011;20193;49.810;6.418;2022-08-05T08:14:39;7.15;;;6.45;;
33900;SDS011;20193;49.810;6.418;2022-08-05T08:17:08;8.20;;;7.35;;
33900;SDS011;20193;49.810;6.418;2022-08-05T08:19:37;7.18;;;6.47;;
33900;SDS011;20193;49.810;6.418;2022-08-05T08:22:04;7.47;;;6.68;;
33900;SDS011;20193;49.810;6.418;2022-08-05T08:24:31;6.93;;;6.43;;
33900;SDS011;20193;49.810;6.418;2022-08-05T08:26:57;7.53;;;6.82;;
33900;SDS011;20193;49.810;6.418;2022-08-05T08:29:22;6.32;;;5.85;;
33900;SDS011;20193;49.810;6.418;2022-08-05T08:31:48;7.53;;;6.10;;
33900;SDS011;20193;49.810;6.418;2022-08-05T08:34:21;7.63;;;7.00;;
33900;SDS011;20193;49.810;6.418;2022-08-05T08:36:48;7.65;;;6.88;;
33900;SDS011;20193;49.810;6.418;2022-08-05T08:39:15;7.07;;;6.57;;
33900;SDS011;20193;49.810;6.418;2022-08-05T08:41:43;7.38;;;6.63;;
33900;SDS011;20193;49.810;6.418;2022-08-05T08:44:12;7.00;;;6.32;;
33900;SDS011;20193;49.810;6.418;2022-08-05T08:46:39;7.07;;;6.47;;
33900;SDS011;20193;49.810;6.418;2022-08-05T08:49:05;7.38;;;6.68;;
33900;SDS011;20193;49.810;6.418;2022-08-05T08:51:33;6.13;;;5.63;;
33900;SDS011;20193;49.810;6.418;2022-08-05T08:54:01;7.68;;;5.70;;
33900;SDS011;20193;49.810;6.418;2022-08-05T08:56:26;6.10;;;5.65;;
33900;SDS011;20193;49.810;6.418;2022-08-05T08:58:53;6.25;;;5.85;;
33900;SDS011;20193;49.810;6.418;2022-08-05T09:01:19;6.40;;;5.65;;
33900;SDS011;20193;49.810;6.418;2022-08-05T09:03:48;6.40;;;5.80;;
33900;SDS011;20193;49.810;6.418;2022-08-05T09:06:15;7.88;;;6.35;;
33900;SDS011;20193;49.810;6.418;2022-08-05T09:08:41;6.78;;;6.28;;
33900;SDS011;20193;49.810;6.418;2022-08-05T09:11:07;6.60;;;6.10;;
33900;SDS011;20193;49.810;6.418;2022-08-05T09:13:33;6.35;;;5.78;;
33900;SDS011;20193;49.810;6.418;2022-08-05T09:16:00;5.75;;;5.35;;
33900;SDS011;20193;49.810;6.418;2022-08-05T09:18:26;7.18;;;6.47;;
33900;SDS011;20193;49.810;6.418;2022-08-05T09:20:52;6.15;;;5.47;;
33900;SDS011;20193;49.810;6.418;2022-08-05T09:23:18;5.47;;;4.97;;
33900;SDS011;20193;49.810;6.418;2022-08-05T09:25:45;6.90;;;5.18;;
33900;SDS011;20193;49.810;6.418;2022-08-05T09:30:41;4.70;;;4.30;;
33900;SDS011;20193;49.810;6.418;2022-08-05T09:33:08;6.60;;;4.45;;
33900;SDS011;20193;49.810;6.418;2022-08-05T09:35:34;4.70;;;4.35;;
33900;SDS011;20193;49.810;6.418;2022-08-05T09:37:59;5.60;;;5.00;;
33900;SDS011;20193;49.810;6.418;2022-08-05T09:40:37;6.38;;;4.43;;
33900;SDS011;20193;49.810;6.418;2022-08-05T09:43:06;4.40;;;4.00;;
33900;SDS011;20193;49.810;6.418;2022-08-05T09:45:40;6.50;;;4.25;;
33900;SDS011;20193;49.810;6.418;2022-08-05T09:48:20;4.10;;;3.80;;
33900;SDS011;20193;49.810;6.418;2022-08-05T09:50:51;4.82;;;4.40;;
33900;SDS011;20193;49.810;6.418;2022-08-05T09:53:47;5.07;;;4.32;;
33900;SDS011;20193;49.810;6.418;2022-08-05T09:56:27;6.15;;;4.32;;
33900;SDS011;20193;49.810;6.418;2022-08-05T09:58:55;4.55;;;4.15;;
33900;SDS011;20193;49.810;6.418;2022-08-05T10:01:25;4.38;;;4.07;;
33900;SDS011;20193;49.810;6.418;2022-08-05T10:03:59;5.95;;;5.22;;
33900;SDS011;20193;49.810;6.418;2022-08-05T10:06:28;7.15;;;6.57;;
33900;SDS011;20193;49.810;6.418;2022-08-05T10:09:17;6.15;;;5.75;;
33900;SDS011;20193;49.810;6.418;2022-08-05T10:11:45;6.05;;;5.53;;
33900;SDS011;20193;49.810;6.418;2022-08-05T10:14:24;5.93;;;5.43;;
33900;SDS011;20193;49.810;6.418;2022-08-05T10:16:53;5.43;;;5.07;;
33900;SDS011;20193;49.810;6.418;2022-08-05T10:19:21;5.95;;;5.45;;
33900;SDS011;20193;49.810;6.418;2022-08-05T10:21:47;6.10;;;5.60;;
33900;SDS011;20193;49.810;6.418;2022-08-05T10:24:18;5.45;;;5.05;;
33900;SDS011;20193;49.810;6.418;2022-08-05T10:26:44;5.00;;;4.70;;
33900;SDS011;20193;49.810;6.418;2022-08-05T10:29:11;5.00;;;4.70;;
33900;SDS011;20193;49.810;6.418;2022-08-05T10:31:37;4.82;;;4.43;;
33900;SDS011;20193;49.810;6.418;2022-08-05T10:34:04;4.93;;;4.38;;
33900;SDS011;20193;49.810;6.418;2022-08-05T10:36:31;4.85;;;4.35;;
33900;SDS011;20193;49.810;6.418;2022-08-05T10:38:59;4.50;;;4.10;;
33900;SDS011;20193;49.810;6.418;2022-08-05T10:41:33;4.65;;;4.25;;
33900;SDS011;20193;49.810;6.418;2022-08-05T10:44:04;5.25;;;4.60;;
33900;SDS011;20193;49.810;6.418;2022-08-05T10:46:43;4.55;;;4.25;;
33900;SDS011;20193;49.810;6.418;2022-08-05T10:49:16;4.30;;;4.00;;
33900;SDS011;20193;49.810;6.418;2022-08-05T10:51:47;4.78;;;4.18;;
33900;SDS011;20193;49.810;6.418;2022-08-05T10:54:14;4.18;;;3.88;;
33900;SDS011;20193;49.810;6.418;2022-08-05T10:56:45;4.85;;;4.45;;
33900;SDS011;20193;49.810;6.418;2022-08-05T10:59:17;4.53;;;4.20;;
33900;SDS011;20193;49.810;6.418;2022-08-05T11:01:49;4.60;;;4.20;;
33900;SDS011;20193;49.810;6.418;2022-08-05T11:04:32;4.53;;;4.22;;
33900;SDS011;20193;49.810;6.418;2022-08-05T11:07:07;4.18;;;3.88;;
33900;SDS011;20193;49.810;6.418;2022-08-05T11:09:42;4.43;;;4.07;;
33900;SDS011;20193;49.810;6.418;2022-08-05T11:17:42;4.30;;;4.00;;
33900;SDS011;20193;49.810;6.418;2022-08-05T11:23:24;3.78;;;3.55;;
33900;SDS011;20193;49.810;6.418;2022-08-05T11:26:00;4.00;;;3.80;;
33900;SDS011;20193;49.810;6.418;2022-08-05T11:33:24;3.85;;;3.65;;
33900;SDS011;20193;49.810;6.418;2022-08-05T11:41:07;3.35;;;3.13;;
33900;SDS011;20193;49.810;6.418;2022-08-05T11:43:43;3.85;;;3.40;;
33900;SDS011;20193;49.810;6.418;2022-08-05T11:46:26;3.40;;;3.20;;
33900;SDS011;20193;49.810;6.418;2022-08-05T11:48:53;3.60;;;3.30;;
33900;SDS011;20193;49.810;6.418;2022-08-05T11:51:19;3.95;;;3.63;;
33900;SDS011;20193;49.810;6.418;2022-08-05T11:53:45;5.88;;;3.75;;
33900;SDS011;20193;49.810;6.418;2022-08-05T11:56:15;4.00;;;3.70;;
33900;SDS011;20193;49.810;6.418;2022-08-05T11:58:42;3.60;;;3.30;;
33900;SDS011;20193;49.810;6.418;2022-08-05T12:01:16;4.00;;;3.70;;
33900;SDS011;20193;49.810;6.418;2022-08-05T12:03:44;3.65;;;3.45;;
33900;SDS011;20193;49.810;6.418;2022-08-05T12:06:21;3.92;;;3.63;;
33900;SDS011;20193;49.810;6.418;2022-08-05T12:08:54;3.88;;;3.58;;
33900;SDS011;20193;49.810;6.418;2022-08-05T12:11:27;5.13;;;3.60;;
33900;SDS011;20193;49.810;6.418;2022-08-05T12:13:55;3.45;;;3.25;;
33900;SDS011;20193;49.810;6.418;2022-08-05T12:16:23;3.60;;;3.40;;
33900;SDS011;20193;49.810;6.418;2022-08-05T12:18:50;3.85;;;3.55;;
33900;SDS011;20193;49.810;6.418;2022-08-05T12:21:17;3.60;;;3.30;;
33900;SDS011;20193;49.810;6.418;2022-08-05T12:26:17;3.90;;;3.60;;
33900;SDS011;20193;49.810;6.418;2022-08-05T12:28:43;3.50;;;3.30;;
33900;SDS011;20193;49.810;6.418;2022-08-05T12:31:09;3.40;;;3.20;;
33900;SDS011;20193;49.810;6.418;2022-08-05T12:33:34;3.30;;;3.10;;
33900;SDS011;20193;49.810;6.418;2022-08-05T12:36:01;3.17;;;2.97;;
33900;SDS011;20193;49.810;6.418;2022-08-05T12:38:30;2.78;;;2.60;;
33900;SDS011;20193;49.810;6.418;2022-08-05T12:40:56;4.07;;;3.00;;
33900;SDS011;20193;49.810;6.418;2022-08-05T12:43:22;3.10;;;2.90;;
33900;SDS011;20193;49.810;6.418;2022-08-05T12:45:54;3.05;;;2.85;;
33900;SDS011;20193;49.810;6.418;2022-08-05T12:48:23;3.22;;;2.97;;
33900;SDS011;20193;49.810;6.418;2022-08-05T12:51:07;3.30;;;3.10;;
33900;SDS011;20193;49.810;6.418;2022-08-05T12:53:41;2.67;;;2.47;;
33900;SDS011;20193;49.810;6.418;2022-08-05T12:56:22;2.70;;;2.50;;
33900;SDS011;20193;49.810;6.418;2022-08-05T13:01:37;2.75;;;2.63;;
33900;SDS011;20193;49.810;6.418;2022-08-05T13:04:04;2.55;;;2.35;;
33900;SDS011;20193;49.810;6.418;2022-08-05T13:06:30;3.97;;;2.60;;
33900;SDS011;20193;49.810;6.418;2022-08-05T13:08:56;2.40;;;2.30;;
33900;SDS011;20193;49.810;6.418;2022-08-05T13:11:22;2.65;;;2.55;;
33900;SDS011;20193;49.810;6.418;2022-08-05T13:13:52;2.97;;;2.67;;
33900;SDS011;20193;49.810;6.418;2022-08-05T13:16:20;7.18;;;3.83;;
33900;SDS011;20193;49.810;6.418;2022-08-05T13:18:52;5.40;;;2.83;;
33900;SDS011;20193;49.810;6.418;2022-08-05T13:21:19;2.70;;;2.50;;
33900;SDS011;20193;49.810;6.418;2022-08-05T13:23:45;2.85;;;2.65;;
33900;SDS011;20193;49.810;6.418;2022-08-05T13:26:11;2.70;;;2.53;;
33900;SDS011;20193;49.810;6.418;2022-08-05T13:28:36;2.70;;;2.50;;
33900;SDS011;20193;49.810;6.418;2022-08-05T13:31:02;2.53;;;2.33;;
33900;SDS011;20193;49.810;6.418;2022-08-05T13:33:28;3.47;;;2.80;;
33900;SDS011;20193;49.810;6.418;2022-08-05T13:35:53;2.97;;;2.67;;
33900;SDS011;20193;49.810;6.418;2022-08-05T13:38:19;3.65;;;3.35;;
33900;SDS011;20193;49.810;6.418;2022-08-05T13:40:45;3.83;;;3.40;;
33900;SDS011;20193;49.810;6.418;2022-08-05T13:43:11;3.13;;;2.83;;
33900;SDS011;20193;49.810;6.418;2022-08-05T13:45:37;5.88;;;2.88;;
33900;SDS011;20193;49.810;6.418;2022-08-05T13:48:03;2.70;;;2.50;;
33900;SDS011;20193;49.810;6.418;2022-08-05T13:50:29;4.68;;;3.10;;
33900;SDS011;20193;49.810;6.418;2022-08-05T13:52:54;2.72;;;2.53;;
33900;SDS011;20193;49.810;6.418;2022-08-05T13:55:20;3.00;;;2.67;;
33900;SDS011;20193;49.810;6.418;2022-08-05T13:57:46;3.22;;;2.92;;
33900;SDS011;20193;49.810;6.418;2022-08-05T14:00:12;3.70;;;2.85;;
33900;SDS011;20193;49.810;6.418;2022-08-05T14:02:38;3.00;;;2.80;;
33900;SDS011;20193;49.810;6.418;2022-08-05T14:05:03;2.70;;;2.47;;
33900;SDS011;20193;49.810;6.418;2022-08-05T14:07:39;3.50;;;2.83;;
33900;SDS011;20193;49.810;6.418;2022-08-05T14:12:40;2.50;;;2.30;;
33900;SDS011;20193;49.810;6.418;2022-08-05T14:15:06;3.50;;;2.63;;
33900;SDS011;20193;49.810;6.418;2022-08-05T14:17:33;2.75;;;2.55;;
33900;SDS011;20193;49.810;6.418;2022-08-05T14:19:59;2.70;;;2.50;;
33900;SDS011;20193;49.810;6.418;2022-08-05T14:22:24;2.85;;;2.60;;
33900;SDS011;20193;49.810;6.418;2022-08-05T14:24:50;3.47;;;3.17;;
33900;SDS011;20193;49.810;6.418;2022-08-05T14:27:16;2.90;;;2.70;;
33900;SDS011;20193;49.810;6.418;2022-08-05T14:29:42;3.53;;;3.17;;
33900;SDS011;20193;49.810;6.418;2022-08-05T14:32:07;2.67;;;2.50;;
33900;SDS011;20193;49.810;6.418;2022-08-05T14:34:33;3.75;;;3.00;;
33900;SDS011;20193;49.810;6.418;2022-08-05T14:36:59;4.32;;;2.47;;
33900;SDS011;20193;49.810;6.418;2022-08-05T14:39:25;3.30;;;3.00;;
33900;SDS011;20193;49.810;6.418;2022-08-05T14:41:50;3.83;;;3.00;;
33900;SDS011;20193;49.810;6.418;2022-08-05T14:44:16;2.60;;;2.40;;
33900;SDS011;20193;49.810;6.418;2022-08-05T14:46:42;2.97;;;2.75;;
33900;SDS011;20193;49.810;6.418;2022-08-05T14:49:08;3.42;;;3.13;;
33900;SDS011;20193;49.810;6.418;2022-08-05T14:51:37;4.10;;;3.00;;
33900;SDS011;20193;49.810;6.418;2022-08-05T14:54:04;2.72;;;2.53;;
33900;SDS011;20193;49.810;6.418;2022-08-05T14:56:31;3.25;;;2.95;;
33900;SDS011;20193;49.810;6.418;2022-08-05T14:58:57;5.13;;;3.20;;
33900;SDS011;20193;49.810;6.418;2022-08-05T15:01:22;2.70;;;2.50;;
33900;SDS011;20193;49.810;6.418;2022-08-05T15:03:48;2.97;;;2.70;;
33900;SDS011;20193;49.810;6.418;2022-08-05T15:06:13;3.33;;;2.90;;
33900;SDS011;20193;49.810;6.418;2022-08-05T15:08:39;2.97;;;2.70;;
33900;SDS011;20193;49.810;6.418;2022-08-05T15:11:06;3.75;;;2.75;;
33900;SDS011;20193;49.810;6.418;2022-08-05T15:13:32;4.57;;;3.00;;
33900;SDS011;20193;49.810;6.418;2022-08-05T15:15:58;3.20;;;2.90;;
33900;SDS011;20193;49.810;6.418;2022-08-05T15:18:24;3.38;;;2.72;;
33900;SDS011;20193;49.810;6.418;2022-08-05T15:20:49;3.85;;;2.60;;
33900;SDS011;20193;49.810;6.418;2022-08-05T15:23:15;3.58;;;2.70;;
33900;SDS011;20193;49.810;6.418;2022-08-05T15:25:41;5.10;;;4.80;;